Terminal Aerodrome Forecast
Issued by NWS

Home | Current Version | Previous Version | Text Only | Print | Product List | Glossary On
Versions: 1 2 3 4 5 6 7 8 9 10 11 12
000
FTUS44 KEPZ 012323
TAFLRU
TAF
KLRU 012323Z 0200/0224 11012G19KT P6SM SCT100
     FM020600 10011KT P6SM FEW100
     FM021300 04010KT P6SM FEW100
     FM021800 11008KT P6SM SKC=

USA.gov is the U.S. government's official web portal to all federal, state and local government web resources and services.